createdAt,value
2018-07-05T00:01:59.888Z,99.90
2018-07-05T00:04:47.520Z,99.90
2018-07-05T00:07:32.989Z,99.90
2018-07-05T00:10:18.406Z,99.90
2018-07-05T00:13:04.217Z,99.90
2018-07-05T00:15:54.238Z,99.90
2018-07-05T00:18:42.897Z,99.90
2018-07-05T00:21:30.733Z,99.90
2018-07-05T00:24:16.365Z,99.90
2018-07-05T00:27:03.920Z,99.90
2018-07-05T00:29:49.416Z,99.90
2018-07-05T00:32:34.888Z,99.90
2018-07-05T00:35:20.755Z,99.90
2018-07-05T00:38:08.428Z,99.90
2018-07-05T00:40:53.858Z,99.90
2018-07-05T00:43:40.168Z,99.90
2018-07-05T00:46:25.745Z,99.90
2018-07-05T00:49:11.372Z,99.90
2018-07-05T00:52:01.418Z,99.90
2018-07-05T00:54:49.255Z,99.90
2018-07-05T00:57:34.925Z,99.90
2018-07-05T01:00:22.906Z,99.90
2018-07-05T01:03:08.455Z,99.90
2018-07-05T01:05:53.953Z,99.90
2018-07-05T01:08:41.466Z,99.90
2018-07-05T01:11:31.425Z,99.90
2018-07-05T01:14:28.656Z,99.90
2018-07-05T01:17:16.154Z,99.90
2018-07-05T01:20:04.203Z,99.90
2018-07-05T01:22:49.934Z,99.90
2018-07-05T01:25:37.393Z,99.90
2018-07-05T01:28:23.091Z,99.90
2018-07-05T01:34:05.632Z,99.90
2018-07-05T01:36:54.269Z,99.90
2018-07-05T01:39:47.357Z,99.90
2018-07-05T01:42:32.701Z,99.90
2018-07-05T01:45:20.308Z,99.90
2018-07-05T01:48:08.159Z,99.90
2018-07-05T01:50:54.032Z,99.90
2018-07-05T01:53:39.634Z,99.90
2018-07-05T01:56:25.185Z,99.90
2018-07-05T01:59:10.568Z,99.90
2018-07-05T02:01:55.923Z,99.90
2018-07-05T02:04:41.345Z,99.90
2018-07-05T02:07:29.055Z,99.90
2018-07-05T02:10:14.690Z,99.90
2018-07-05T02:13:00.511Z,99.90
2018-07-05T02:15:48.366Z,99.90
2018-07-05T02:18:33.766Z,99.90
2018-07-05T02:21:19.236Z,99.90
2018-07-05T02:24:07.650Z,99.90
2018-07-05T02:26:56.862Z,99.90
2018-07-05T02:29:46.611Z,99.90
2018-07-05T02:32:32.216Z,99.90
2018-07-05T02:35:17.992Z,99.90
2018-07-05T02:38:37.467Z,99.90
2018-07-05T02:41:23.081Z,99.90
2018-07-05T02:44:12.931Z,99.90
2018-07-05T02:46:58.516Z,99.90
2018-07-05T02:49:46.172Z,99.90
2018-07-05T02:52:33.991Z,99.90
2018-07-05T02:55:19.443Z,99.90
2018-07-05T02:58:07.182Z,99.90
2018-07-05T03:03:45.419Z,99.90
2018-07-05T03:06:31.072Z,99.90
2018-07-05T03:09:18.935Z,99.90
2018-07-05T03:12:04.382Z,99.90
2018-07-05T03:14:50.191Z,99.90
2018-07-05T03:17:39.846Z,99.90
2018-07-05T03:20:28.551Z,99.90
2018-07-05T03:23:18.487Z,99.90
2018-07-05T03:26:04.091Z,99.90
2018-07-05T03:28:49.459Z,99.90
2018-07-05T03:31:37.340Z,99.90
2018-07-05T03:34:22.753Z,99.90
2018-07-05T03:37:08.276Z,99.90
2018-07-05T03:39:55.786Z,99.90
2018-07-05T03:42:48.606Z,99.90
2018-07-05T03:45:34.005Z,99.90
2018-07-05T03:48:22.612Z,99.90
2018-07-05T03:51:10.174Z,99.90
2018-07-05T03:53:57.844Z,99.90
2018-07-05T03:56:43.193Z,99.90
2018-07-05T03:59:29.017Z,99.90
2018-07-05T04:05:07.252Z,99.90
2018-07-05T04:07:55.757Z,99.90
2018-07-05T04:10:48.850Z,99.90
2018-07-05T04:13:44.041Z,99.90
2018-07-05T04:16:31.656Z,99.90
2018-07-05T04:22:10.014Z,99.90
2018-07-05T04:24:59.929Z,99.90
2018-07-05T04:27:45.791Z,99.90
2018-07-05T04:33:24.432Z,99.90
2018-07-05T04:36:15.005Z,99.90
2018-07-05T04:39:00.686Z,99.90
2018-07-05T04:41:46.064Z,99.90
2018-07-05T04:44:32.902Z,99.90
2018-07-05T04:47:22.679Z,99.90
2018-07-05T04:50:11.362Z,99.90
2018-07-05T04:53:01.400Z,99.90
2018-07-05T04:55:49.250Z,99.90
2018-07-05T04:58:36.775Z,99.90
2018-07-05T05:01:29.869Z,99.90
2018-07-05T05:04:18.503Z,99.90
2018-07-05T05:07:06.230Z,99.90
2018-07-05T05:09:56.023Z,99.90
2018-07-05T05:12:43.997Z,99.90
2018-07-05T05:15:30.216Z,99.90
2018-07-05T05:18:19.769Z,99.90
2018-07-05T05:21:05.709Z,99.90
2018-07-05T05:23:55.545Z,99.90
2018-07-05T05:26:43.323Z,99.90
2018-07-05T05:29:31.062Z,99.90
2018-07-05T05:32:26.386Z,99.90
2018-07-05T05:35:14.718Z,99.90
2018-07-05T05:38:02.185Z,99.90
2018-07-05T05:40:49.853Z,99.90
2018-07-05T05:43:37.497Z,99.90
2018-07-05T05:46:22.881Z,99.90
2018-07-05T05:49:08.524Z,99.90
2018-07-05T05:51:56.177Z,99.90
2018-07-05T05:54:41.628Z,99.90
2018-07-05T05:57:27.220Z,99.90
2018-07-05T06:00:14.699Z,99.90
2018-07-05T06:03:02.692Z,99.90
2018-07-05T06:05:48.266Z,99.90
2018-07-05T06:08:35.661Z,99.90
2018-07-05T06:11:25.295Z,99.90
2018-07-05T06:16:52.911Z,98.50
2018-07-05T06:19:38.690Z,98.20
2018-07-05T06:22:33.994Z,97.80
2018-07-05T06:25:21.853Z,97.40
2018-07-05T06:28:11.539Z,96.90
2018-07-05T06:30:57.150Z,96.60
2018-07-05T06:33:47.118Z,96.40
2018-07-05T06:36:35.098Z,95.60
2018-07-05T06:39:27.620Z,95.10
2018-07-05T06:42:13.463Z,94.70
2018-07-05T06:45:01.025Z,93.90
2018-07-05T06:47:46.517Z,93.70
2018-07-05T06:50:31.947Z,93.50
2018-07-05T06:53:17.767Z,93.10
2018-07-05T06:56:06.285Z,92.90
2018-07-05T06:58:52.414Z,92.90
2018-07-05T07:01:40.052Z,92.30
2018-07-05T07:04:25.394Z,92.00
2018-07-05T07:07:10.805Z,91.90
2018-07-05T07:10:00.885Z,91.70
2018-07-05T07:12:46.808Z,91.60
2018-07-05T07:15:32.934Z,91.30
2018-07-05T07:18:20.900Z,91.50
2018-07-05T07:21:06.792Z,91.30
2018-07-05T07:23:54.442Z,90.40
2018-07-05T07:26:39.985Z,89.40
2018-07-05T07:29:25.802Z,89.40
2018-07-05T07:32:15.728Z,88.70
2018-07-05T07:35:03.270Z,88.10
2018-07-05T07:37:52.965Z,86.40
2018-07-05T07:40:38.462Z,84.80
2018-07-05T07:43:11.215Z,84.80
2018-07-05T07:45:38.131Z,84.00
2018-07-05T07:48:04.898Z,83.40
2018-07-05T07:50:31.667Z,82.20
2018-07-05T07:52:58.403Z,81.00
2018-07-05T07:55:25.133Z,79.40
2018-07-05T07:57:51.897Z,78.40
2018-07-05T08:00:18.789Z,77.20
2018-07-05T08:02:45.644Z,75.70
2018-07-05T08:05:12.407Z,76.20
2018-07-05T08:07:39.581Z,75.40
2018-07-05T08:10:06.393Z,75.10
2018-07-05T08:12:33.155Z,76.00
2018-07-05T08:15:00.116Z,74.30
2018-07-05T08:17:26.859Z,74.00
2018-07-05T08:19:53.738Z,74.40
2018-07-05T08:22:20.557Z,74.30
2018-07-05T08:24:47.361Z,74.10
2018-07-05T08:27:14.190Z,74.40
2018-07-05T08:29:41.045Z,74.70
2018-07-05T08:32:08.502Z,75.90
2018-07-05T08:34:35.337Z,74.00
2018-07-05T08:37:02.151Z,74.00
2018-07-05T08:39:28.942Z,74.10
2018-07-05T08:41:55.820Z,73.60
2018-07-05T08:44:22.596Z,72.50
2018-07-05T08:46:49.447Z,71.90
2018-07-05T08:49:16.304Z,72.70
2018-07-05T08:51:43.203Z,71.30
2018-07-05T08:54:09.988Z,71.80
2018-07-05T08:56:36.711Z,71.60
2018-07-05T08:59:03.473Z,70.80
2018-07-05T09:01:30.284Z,70.40
2018-07-05T09:03:57.434Z,70.00
2018-07-05T09:06:24.177Z,68.30
2018-07-05T09:08:50.898Z,67.80
2018-07-05T09:11:17.671Z,67.60
2018-07-05T09:13:44.508Z,67.30
2018-07-05T09:16:11.351Z,66.50
2018-07-05T09:18:38.058Z,66.20
2018-07-05T09:21:04.850Z,66.60
2018-07-05T09:23:31.706Z,66.80
2018-07-05T09:25:58.460Z,67.60
2018-07-05T09:28:25.250Z,66.50
2018-07-05T09:30:52.080Z,65.80
2018-07-05T09:33:18.908Z,65.80
2018-07-05T09:35:45.698Z,65.60
2018-07-05T09:38:12.629Z,64.50
2018-07-05T09:40:39.467Z,64.40
2018-07-05T09:43:06.297Z,63.70
2018-07-05T09:45:33.110Z,63.60
2018-07-05T09:47:59.886Z,64.00
2018-07-05T09:50:26.602Z,62.90
2018-07-05T09:52:53.522Z,61.60
2018-07-05T09:55:20.386Z,61.20
2018-07-05T09:57:47.245Z,60.40
2018-07-05T10:00:14.013Z,61.10
2018-07-05T10:02:41.036Z,60.10
2018-07-05T10:05:08.004Z,59.50
2018-07-05T10:07:34.820Z,59.20
2018-07-05T10:10:02.291Z,59.80
2018-07-05T10:12:29.352Z,59.20
2018-07-05T10:14:56.117Z,59.30
2018-07-05T10:17:22.899Z,58.70
2018-07-05T10:19:50.102Z,58.20
2018-07-05T10:22:16.924Z,58.00
2018-07-05T10:24:43.755Z,58.50
2018-07-05T10:27:10.517Z,58.60
2018-07-05T10:29:54.074Z,58.80
2018-07-05T10:32:39.787Z,58.90
2018-07-05T10:35:12.921Z,58.60
2018-07-05T10:37:39.767Z,58.30
2018-07-05T10:40:21.361Z,58.80
2018-07-05T10:43:07.120Z,57.80
2018-07-05T10:45:54.733Z,58.30
2018-07-05T10:48:46.438Z,58.70
2018-07-05T10:51:32.022Z,58.30
2018-07-05T10:54:19.551Z,58.70
2018-07-05T10:57:07.370Z,58.60
2018-07-05T10:59:52.885Z,58.50
2018-07-05T11:02:38.715Z,59.00
2018-07-05T11:05:29.186Z,58.80
2018-07-05T11:08:15.282Z,58.20
2018-07-05T11:11:01.034Z,57.40
2018-07-05T11:13:46.561Z,57.30
2018-07-05T11:16:36.687Z,57.20
2018-07-05T11:19:24.686Z,57.80
2018-07-05T11:22:10.242Z,58.00
2018-07-05T11:24:56.107Z,57.70
2018-07-05T11:27:45.969Z,57.10
2018-07-05T11:30:31.500Z,57.20
2018-07-05T11:33:24.576Z,56.90
2018-07-05T11:36:09.908Z,56.40
2018-07-05T11:39:03.089Z,56.50
2018-07-05T11:41:51.598Z,56.40
2018-07-05T11:44:40.311Z,56.40
2018-07-05T11:47:27.939Z,56.30
2018-07-05T11:50:13.718Z,56.60
2018-07-05T11:53:03.584Z,56.10
2018-07-05T11:55:51.262Z,55.80
2018-07-05T11:58:41.236Z,55.80
2018-07-05T12:01:28.858Z,55.60
2018-07-05T12:04:18.505Z,55.20
2018-07-05T12:07:04.302Z,55.20
2018-07-05T12:09:54.017Z,55.30
2018-07-05T12:12:41.615Z,55.00
2018-07-05T12:15:27.067Z,54.70
2018-07-05T12:18:13.919Z,54.20
2018-07-05T12:20:59.688Z,54.00
2018-07-05T12:23:45.105Z,53.60
2018-07-05T12:26:30.429Z,53.60
2018-07-05T12:29:18.949Z,54.10
2018-07-05T12:32:06.522Z,54.10
2018-07-05T12:34:52.314Z,53.80
2018-07-05T12:37:40.874Z,54.00
2018-07-05T12:40:33.660Z,53.70
2018-07-05T12:43:19.296Z,54.00
2018-07-05T12:46:07.749Z,54.00
2018-07-05T12:48:55.430Z,53.30
2018-07-05T12:51:45.261Z,53.10
2018-07-05T12:54:38.250Z,52.70
2018-07-05T12:57:23.807Z,53.80
2018-07-05T13:00:09.288Z,52.70
2018-07-05T13:02:57.116Z,52.70
2018-07-05T13:05:42.686Z,52.90
2018-07-05T13:08:27.978Z,52.60
2018-07-05T13:11:13.752Z,52.20
2018-07-05T13:13:59.426Z,52.10
2018-07-05T13:16:44.910Z,52.10
2018-07-05T13:19:30.663Z,52.10
2018-07-05T13:22:18.526Z,51.40
2018-07-05T13:25:04.553Z,51.60
2018-07-05T13:27:50.287Z,51.30
2018-07-05T13:30:37.802Z,51.40
2018-07-05T13:33:25.547Z,51.40
2018-07-05T13:36:11.357Z,51.40
2018-07-05T13:39:01.335Z,51.30
2018-07-05T13:41:49.954Z,50.90
2018-07-05T13:44:37.526Z,50.70
2018-07-05T13:47:23.203Z,50.50
2018-07-05T13:50:19.204Z,50.70
2018-07-05T13:53:04.929Z,50.60
2018-07-05T13:55:54.900Z,51.10
2018-07-05T13:58:40.917Z,51.20
2018-07-05T14:01:28.935Z,50.90
2018-07-05T14:04:19.121Z,50.70
2018-07-05T14:07:06.965Z,50.90
2018-07-05T14:09:57.534Z,50.90
2018-07-05T14:12:43.031Z,50.50
2018-07-05T14:15:28.692Z,50.60
2018-07-05T14:18:16.486Z,50.70
2018-07-05T14:21:01.916Z,50.60
2018-07-05T14:23:47.217Z,50.50
2018-07-05T14:26:32.678Z,50.80
2018-07-05T14:29:20.791Z,51.40
2018-07-05T14:32:06.593Z,51.30
2018-07-05T14:34:54.356Z,51.00
2018-07-05T14:37:39.922Z,50.80
2018-07-05T14:40:26.232Z,51.00
2018-07-05T14:43:13.878Z,50.70
2018-07-05T14:45:59.354Z,50.40
2018-07-05T14:48:49.059Z,50.20
2018-07-05T14:51:34.482Z,50.10
2018-07-05T14:54:19.857Z,50.20
2018-07-05T14:57:05.470Z,49.80
2018-07-05T14:59:55.337Z,49.60
2018-07-05T15:02:41.112Z,49.50
2018-07-05T15:05:27.328Z,49.50
2018-07-05T15:08:14.707Z,49.40
2018-07-05T15:11:00.250Z,49.10
2018-07-05T15:13:49.997Z,48.90
2018-07-05T15:16:37.606Z,48.90
2018-07-05T15:19:25.141Z,49.20
2018-07-05T15:22:15.873Z,49.20
2018-07-05T15:25:01.510Z,49.10
2018-07-05T15:27:49.419Z,48.90
2018-07-05T15:30:35.095Z,49.30
2018-07-05T15:33:22.801Z,49.60
2018-07-05T15:36:08.497Z,49.70
2018-07-05T15:38:58.515Z,50.40
2018-07-05T15:41:44.550Z,50.90
2018-07-05T15:44:37.328Z,51.40
2018-07-05T15:47:24.913Z,51.90
2018-07-05T15:50:12.347Z,52.60
2018-07-05T15:52:59.996Z,52.90
2018-07-05T15:55:45.679Z,53.10
2018-07-05T15:58:33.589Z,53.40
2018-07-05T16:01:23.952Z,54.00
2018-07-05T16:04:09.733Z,54.20
2018-07-05T16:06:57.301Z,54.20
2018-07-05T16:09:45.443Z,54.90
2018-07-05T16:12:35.062Z,55.00
2018-07-05T16:15:20.566Z,55.20
2018-07-05T16:18:05.981Z,55.50
2018-07-05T16:20:51.280Z,55.60
2018-07-05T16:23:36.606Z,55.80
2018-07-05T16:26:22.034Z,56.00
2018-07-05T16:29:09.753Z,56.30
2018-07-05T16:31:55.558Z,56.70
2018-07-05T16:34:44.168Z,57.40
2018-07-05T16:37:29.582Z,58.10
2018-07-05T16:40:19.561Z,58.80
2018-07-05T16:43:07.659Z,59.40
2018-07-05T16:45:53.170Z,60.00
2018-07-05T16:48:38.554Z,60.50
2018-07-05T16:51:27.052Z,61.00
2018-07-05T16:54:14.952Z,61.60
2018-07-05T16:57:00.800Z,62.20
2018-07-05T16:59:48.998Z,62.90
2018-07-05T17:02:36.349Z,63.50
2018-07-05T17:05:24.319Z,64.50
2018-07-05T17:08:09.807Z,65.50
2018-07-05T17:13:37.107Z,68.20
2018-07-05T17:16:22.583Z,68.60
2018-07-05T17:19:07.979Z,69.40
2018-07-05T17:21:54.048Z,70.10
2018-07-05T17:24:39.598Z,70.90
2018-07-05T17:27:24.983Z,71.40
2018-07-05T17:32:54.546Z,72.70
2018-07-05T17:35:40.414Z,73.40
2018-07-05T17:38:28.040Z,73.90
2018-07-05T17:41:16.303Z,74.50
2018-07-05T17:44:01.922Z,75.00
2018-07-05T17:46:47.268Z,75.50
2018-07-05T17:49:32.761Z,76.00
2018-07-05T17:52:20.162Z,76.70
2018-07-05T17:55:07.765Z,77.40
2018-07-05T17:57:57.545Z,78.20
2018-07-05T18:00:50.847Z,79.00
2018-07-05T18:03:46.012Z,80.00
2018-07-05T18:06:31.447Z,80.60
2018-07-05T18:09:19.831Z,81.30
2018-07-05T18:12:07.368Z,81.90
2018-07-05T18:14:53.042Z,82.30
2018-07-05T18:17:38.469Z,82.80
2018-07-05T18:20:23.900Z,83.50
2018-07-05T18:23:17.017Z,84.00
2018-07-05T18:26:02.833Z,84.70
2018-07-05T18:28:50.505Z,85.20
2018-07-05T18:31:36.162Z,85.10
2018-07-05T18:34:25.163Z,86.10
2018-07-05T18:37:10.912Z,86.40
2018-07-05T18:39:56.216Z,86.60
2018-07-05T18:42:43.788Z,86.90
2018-07-05T18:45:34.251Z,87.10
2018-07-05T18:48:19.797Z,87.50
2018-07-05T18:51:05.608Z,87.80
2018-07-05T18:53:53.285Z,88.10
2018-07-05T18:56:38.686Z,88.40
2018-07-05T18:59:24.166Z,88.60
2018-07-05T19:02:10.067Z,89.40
2018-07-05T19:04:59.929Z,89.90
2018-07-05T19:07:49.517Z,90.10
2018-07-05T19:13:27.746Z,90.80
2018-07-05T19:16:16.406Z,90.80
2018-07-05T19:19:04.202Z,91.00
2018-07-05T19:21:52.879Z,91.20
2018-07-05T19:24:40.547Z,91.20
2018-07-05T19:27:30.354Z,91.40
2018-07-05T19:30:15.813Z,91.50
2018-07-05T19:33:03.392Z,91.70
2018-07-05T19:35:49.125Z,91.90
2018-07-05T19:38:34.556Z,92.10
2018-07-05T19:41:20.200Z,92.20
2018-07-05T19:44:10.849Z,92.40
2018-07-05T19:46:56.456Z,92.60
2018-07-05T19:49:41.802Z,92.70
2018-07-05T19:52:27.260Z,92.80
2018-07-05T19:58:05.750Z,93.20
2018-07-05T20:00:51.100Z,93.40
2018-07-05T20:03:37.005Z,93.60
2018-07-05T20:06:22.808Z,93.80
2018-07-05T20:09:12.884Z,94.10
2018-07-05T20:12:04.077Z,94.30
2018-07-05T20:14:49.649Z,94.60
2018-07-05T20:17:37.228Z,94.80
2018-07-05T20:20:22.907Z,95.10
2018-07-05T20:23:08.540Z,95.30
2018-07-05T20:25:54.654Z,95.50
2018-07-05T20:28:40.222Z,95.70
2018-07-05T20:31:33.332Z,95.90
2018-07-05T20:34:18.748Z,96.20
2018-07-05T20:37:04.172Z,96.30
2018-07-05T20:39:49.926Z,96.60
2018-07-05T20:42:35.611Z,96.80
2018-07-05T20:45:21.102Z,97.30
2018-07-05T20:48:06.467Z,97.20
2018-07-05T20:50:51.842Z,97.40
2018-07-05T20:53:37.529Z,97.60
2018-07-05T20:56:27.890Z,97.80
2018-07-05T20:59:13.535Z,98.00
2018-07-05T21:01:58.988Z,98.20
2018-07-05T21:04:47.533Z,98.40
2018-07-05T21:10:26.144Z,98.80
2018-07-05T21:13:13.688Z,99.00
2018-07-05T21:16:04.439Z,99.10
2018-07-05T21:18:49.880Z,99.50
2018-07-05T21:21:38.343Z,99.60
2018-07-05T21:24:28.889Z,99.90
2018-07-05T21:27:14.942Z,99.90
2018-07-05T21:30:04.863Z,99.90
2018-07-05T21:32:50.793Z,99.90
2018-07-05T21:35:40.604Z,99.90
2018-07-05T21:38:28.453Z,99.90
2018-07-05T21:41:18.292Z,99.90
2018-07-05T21:44:03.867Z,99.90
2018-07-05T21:46:51.909Z,99.90
2018-07-05T21:49:39.624Z,99.90
2018-07-05T21:52:25.548Z,99.90
2018-07-05T21:55:13.914Z,99.90
2018-07-05T21:58:01.665Z,99.90
2018-07-05T22:00:49.249Z,99.90
2018-07-05T22:03:36.953Z,99.90
2018-07-05T22:06:28.265Z,99.90
2018-07-05T22:09:16.023Z,99.90
2018-07-05T22:12:01.604Z,99.90
2018-07-05T22:14:49.112Z,99.90
2018-07-05T22:17:42.057Z,99.90
2018-07-05T22:20:33.422Z,99.90
2018-07-05T22:23:24.796Z,99.90
2018-07-05T22:26:16.161Z,99.90
2018-07-05T22:29:07.445Z,99.90
2018-07-05T22:31:58.488Z,99.90
2018-07-05T22:34:43.825Z,99.90
2018-07-05T22:37:31.359Z,99.90
2018-07-05T22:40:21.033Z,99.90
2018-07-05T22:43:06.774Z,99.90
2018-07-05T22:45:52.388Z,99.90
2018-07-05T22:48:40.244Z,99.90
2018-07-05T22:51:25.511Z,99.90
2018-07-05T22:54:11.532Z,99.90
2018-07-05T22:56:59.241Z,99.90
2018-07-05T22:59:46.860Z,99.90
2018-07-05T23:05:25.207Z,99.90
2018-07-05T23:08:13.199Z,99.90
2018-07-05T23:10:58.703Z,99.90
2018-07-05T23:13:47.342Z,99.90
2018-07-05T23:16:35.125Z,99.90
2018-07-05T23:19:20.573Z,99.90
2018-07-05T23:22:06.296Z,99.90
2018-07-05T23:24:55.991Z,99.90
2018-07-05T23:27:41.554Z,99.90
2018-07-05T23:30:27.111Z,99.90
2018-07-05T23:33:12.401Z,99.90
2018-07-05T23:35:57.763Z,99.90
2018-07-05T23:38:50.888Z,99.90
2018-07-05T23:41:38.503Z,99.90
2018-07-05T23:44:26.114Z,99.90
2018-07-05T23:47:11.749Z,99.90
2018-07-05T23:49:57.514Z,99.90
2018-07-05T23:52:47.425Z,99.90
2018-07-05T23:55:40.529Z,99.90
2018-07-05T23:58:29.237Z,99.90
